createdAt,value
2023-01-12T00:00:37.494Z,9.07
2023-01-12T00:03:10.868Z,9.77
2023-01-12T00:05:37.458Z,8.98
2023-01-12T00:08:05.318Z,9.40
2023-01-12T00:10:38.923Z,9.23
2023-01-12T00:13:11.779Z,8.60
2023-01-12T00:15:57.054Z,10.23
2023-01-12T00:18:29.813Z,8.25
2023-01-12T00:20:56.455Z,9.23
2023-01-12T00:23:24.094Z,8.20
2023-01-12T00:25:58.782Z,9.02
2023-01-12T00:28:25.426Z,9.35
2023-01-12T00:30:58.808Z,8.40
2023-01-12T00:33:25.435Z,8.25
2023-01-12T00:35:58.779Z,7.28
2023-01-12T00:38:32.836Z,6.97
2023-01-12T00:41:07.374Z,7.32
2023-01-12T00:43:59.751Z,6.82
2023-01-12T00:46:30.729Z,7.20
2023-01-12T00:48:57.357Z,6.32
2023-01-12T00:51:30.799Z,7.72
2023-01-12T00:54:03.855Z,6.93
2023-01-12T00:56:33.635Z,6.22
2023-01-12T00:59:00.427Z,6.13
2023-01-12T01:01:33.943Z,5.82
2023-01-12T01:04:01.094Z,5.70
2023-01-12T01:06:33.826Z,6.22
2023-01-12T01:09:00.528Z,5.60
2023-01-12T01:11:27.157Z,5.15
2023-01-12T01:14:01.789Z,5.07
2023-01-12T01:16:36.804Z,5.38
2023-01-12T01:19:12.820Z,5.22
2023-01-12T01:21:46.863Z,5.40
2023-01-12T01:24:14.673Z,5.55
2023-01-12T01:26:42.237Z,5.30
2023-01-12T01:29:15.842Z,5.10
2023-01-12T01:31:42.495Z,4.80
2023-01-12T01:34:09.125Z,4.85
2023-01-12T01:36:42.845Z,4.38
2023-01-12T01:39:16.192Z,4.05
2023-01-12T01:41:49.826Z,5.18
2023-01-12T01:44:31.561Z,4.50
2023-01-12T01:47:14.829Z,4.78
2023-01-12T01:49:49.285Z,3.50
2023-01-12T01:52:27.830Z,3.33
2023-01-12T01:54:57.210Z,4.13
2023-01-12T01:57:35.810Z,3.53
2023-01-12T02:00:05.741Z,3.85
2023-01-12T02:02:33.629Z,3.17
2023-01-12T02:05:07.871Z,3.65
2023-01-12T02:07:34.707Z,2.53
2023-01-12T02:10:02.204Z,3.05
2023-01-12T02:12:53.812Z,3.25
2023-01-12T02:15:43.762Z,3.42
2023-01-12T02:18:30.854Z,3.60
2023-01-12T02:21:19.163Z,3.10
2023-01-12T02:24:31.834Z,2.83
2023-01-12T02:27:40.403Z,2.78
2023-01-12T02:30:32.805Z,3.00
2023-01-12T02:33:05.322Z,2.80
2023-01-12T02:35:51.756Z,2.80
2023-01-12T02:38:54.833Z,3.00
2023-01-12T02:41:47.674Z,3.03
2023-01-12T02:44:32.841Z,4.07
2023-01-12T02:47:05.316Z,2.58
2023-01-12T02:49:44.779Z,2.72
2023-01-12T02:52:16.670Z,2.67
2023-01-12T02:54:55.838Z,2.10
2023-01-12T02:57:31.848Z,2.70
2023-01-12T03:00:07.798Z,2.78
2023-01-12T03:02:35.119Z,2.83
2023-01-12T03:05:08.802Z,2.20
2023-01-12T03:07:53.541Z,2.83
2023-01-12T03:10:48.775Z,2.30
2023-01-12T03:13:23.793Z,2.15
2023-01-12T03:16:01.819Z,2.97
2023-01-12T03:18:54.769Z,3.25
2023-01-12T03:21:30.510Z,2.38
2023-01-12T03:24:16.879Z,2.55
2023-01-12T03:26:49.406Z,2.75
2023-01-12T03:29:28.786Z,2.88
2023-01-12T03:32:02.839Z,2.53
2023-01-12T03:34:36.848Z,2.30
2023-01-12T03:37:32.556Z,3.25
2023-01-12T03:40:29.835Z,2.55
2023-01-12T03:43:23.939Z,2.35
2023-01-12T03:46:04.806Z,2.45
2023-01-12T03:48:43.869Z,2.50
2023-01-12T03:51:29.376Z,2.75
2023-01-12T03:54:03.805Z,2.70
2023-01-12T03:56:35.053Z,2.47
2023-01-12T03:59:10.807Z,2.50
2023-01-12T04:01:43.908Z,2.65
2023-01-12T04:04:16.764Z,2.45
2023-01-12T04:06:43.433Z,2.38
2023-01-12T04:09:16.821Z,2.15
2023-01-12T04:12:08.840Z,2.67
2023-01-12T04:14:35.870Z,1.70
2023-01-12T04:17:02.634Z,2.22
2023-01-12T04:19:35.805Z,2.70
2023-01-12T04:22:20.946Z,2.42
2023-01-12T04:24:54.860Z,3.40
2023-01-12T04:27:21.473Z,2.35
2023-01-12T04:29:48.119Z,2.03
2023-01-12T04:32:21.827Z,2.15
2023-01-12T04:34:54.758Z,2.53
2023-01-12T04:37:41.737Z,2.47
2023-01-12T04:40:11.731Z,2.53
2023-01-12T04:43:14.917Z,1.88
2023-01-12T04:45:43.634Z,2.15
2023-01-12T04:48:25.849Z,2.35
2023-01-12T04:50:52.529Z,2.50
2023-01-12T04:53:21.754Z,2.03
2023-01-12T04:55:55.815Z,2.30
2023-01-12T04:58:28.799Z,2.65
2023-01-12T05:01:01.779Z,2.20
2023-01-12T05:03:41.748Z,1.95
2023-01-12T05:06:08.535Z,2.33
2023-01-12T05:09:00.817Z,2.58
2023-01-12T05:11:28.763Z,1.88
2023-01-12T05:14:03.845Z,2.25
2023-01-12T05:16:30.790Z,1.95
2023-01-12T05:18:57.472Z,2.20
2023-01-12T05:21:31.901Z,2.20
2023-01-12T05:23:58.492Z,2.25
2023-01-12T05:26:31.764Z,1.85
2023-01-12T05:29:04.788Z,2.42
2023-01-12T05:31:34.145Z,1.75
2023-01-12T05:34:07.776Z,1.85
2023-01-12T05:36:40.869Z,2.10
2023-01-12T05:39:13.756Z,2.30
2023-01-12T05:42:12.758Z,2.00
2023-01-12T05:44:45.735Z,3.00
2023-01-12T05:47:12.374Z,2.33
2023-01-12T05:49:52.716Z,2.15
2023-01-12T05:52:19.365Z,2.13
2023-01-12T05:54:52.771Z,2.13
2023-01-12T05:57:19.410Z,2.20
2023-01-12T05:59:52.778Z,1.85
2023-01-12T06:02:21.531Z,1.83
2023-01-12T06:04:54.902Z,2.08
2023-01-12T06:07:21.685Z,1.90
2023-01-12T06:09:54.767Z,2.47
2023-01-12T06:12:39.874Z,2.00
2023-01-12T06:15:13.787Z,2.47
2023-01-12T06:17:40.495Z,2.70
2023-01-12T06:20:14.803Z,1.83
2023-01-12T06:22:41.436Z,1.80
2023-01-12T06:25:15.762Z,2.17
2023-01-12T06:27:42.355Z,1.90
2023-01-12T06:30:17.825Z,2.20
2023-01-12T06:32:50.814Z,3.65
2023-01-12T06:35:19.422Z,2.92
2023-01-12T06:38:03.801Z,1.90
2023-01-12T06:40:36.798Z,2.03
2023-01-12T06:43:03.391Z,3.38
2023-01-12T06:45:36.764Z,2.17
2023-01-12T06:48:03.546Z,2.45
2023-01-12T06:50:30.175Z,2.25
2023-01-12T06:53:06.749Z,1.83
2023-01-12T06:55:39.738Z,2.40
2023-01-12T06:58:06.344Z,2.40
2023-01-12T07:00:39.814Z,2.35
2023-01-12T07:03:06.430Z,1.90
2023-01-12T07:05:33.050Z,2.35
2023-01-12T07:08:09.784Z,1.55
2023-01-12T07:10:37.337Z,2.20
2023-01-12T07:13:10.760Z,2.92
2023-01-12T07:15:37.528Z,2.03
2023-01-12T07:18:10.774Z,2.13
2023-01-12T07:20:37.437Z,1.98
2023-01-12T07:23:10.739Z,1.80
2023-01-12T07:25:37.356Z,1.67
2023-01-12T07:28:10.736Z,1.98
2023-01-12T07:30:37.467Z,1.95
2023-01-12T07:33:18.671Z,1.88
2023-01-12T07:35:51.758Z,2.15
2023-01-12T07:38:32.768Z,2.10
2023-01-12T07:41:03.329Z,1.95
2023-01-12T07:43:36.878Z,2.53
2023-01-12T07:46:03.586Z,1.90
2023-01-12T07:48:30.745Z,2.05
2023-01-12T07:51:05.843Z,2.58
2023-01-12T07:53:32.425Z,2.25
2023-01-12T07:55:59.499Z,2.10
2023-01-12T07:58:33.827Z,1.88
2023-01-12T08:01:00.886Z,2.83
2023-01-12T08:03:27.912Z,1.90
2023-01-12T08:06:02.858Z,2.25
2023-01-12T08:08:29.474Z,1.65
2023-01-12T08:11:11.826Z,2.85
2023-01-12T08:13:40.595Z,2.10
2023-01-12T08:16:23.857Z,1.98
2023-01-12T08:19:08.908Z,2.42
2023-01-12T08:21:52.815Z,2.05
2023-01-12T08:24:25.184Z,1.77
2023-01-12T08:27:01.791Z,2.58
2023-01-12T08:29:34.490Z,1.98
2023-01-12T08:32:13.807Z,2.72
2023-01-12T08:34:43.673Z,2.23
2023-01-12T08:37:20.804Z,2.40
2023-01-12T08:39:48.117Z,1.83
2023-01-12T08:42:21.821Z,2.35
2023-01-12T08:44:54.744Z,1.52
2023-01-12T08:47:33.785Z,1.42
2023-01-12T08:50:00.833Z,1.83
2023-01-12T08:52:38.799Z,1.92
2023-01-12T08:55:05.954Z,1.88
2023-01-12T08:57:38.837Z,2.05
2023-01-12T09:00:12.798Z,1.60
2023-01-12T09:02:39.497Z,1.95
2023-01-12T09:05:06.505Z,1.90
2023-01-12T09:07:40.795Z,1.52
2023-01-12T09:10:08.021Z,1.70
2023-01-12T09:12:40.805Z,1.58
2023-01-12T09:15:07.915Z,2.38
2023-01-12T09:17:40.744Z,1.58
2023-01-12T09:20:13.772Z,2.00
2023-01-12T09:22:40.340Z,1.45
2023-01-12T09:25:07.080Z,2.30
2023-01-12T09:27:40.847Z,2.00
2023-01-12T09:30:08.267Z,1.58
2023-01-12T09:32:37.827Z,1.92
2023-01-12T09:35:11.957Z,1.85
2023-01-12T09:37:46.117Z,1.88
2023-01-12T09:40:21.762Z,1.95
2023-01-12T09:43:09.067Z,2.03
2023-01-12T09:46:00.920Z,1.88
2023-01-12T09:48:34.812Z,1.70
2023-01-12T09:51:11.439Z,1.77
2023-01-12T09:53:47.812Z,2.00
2023-01-12T09:56:30.798Z,1.70
2023-01-12T09:59:48.841Z,1.98
2023-01-12T10:02:15.844Z,2.45
2023-01-12T10:04:49.754Z,1.80
2023-01-12T10:07:18.453Z,2.45
2023-01-12T10:09:51.825Z,2.28
2023-01-12T10:12:30.740Z,1.70
2023-01-12T10:15:14.733Z,1.70
2023-01-12T10:17:51.683Z,1.90
2023-01-12T10:20:38.819Z,1.90
2023-01-12T10:23:08.151Z,1.90
2023-01-12T10:26:08.826Z,1.90
2023-01-12T10:28:37.047Z,2.50
2023-01-12T10:31:11.809Z,2.10
2023-01-12T10:33:38.400Z,2.00
2023-01-12T10:36:32.751Z,2.75
2023-01-12T10:39:03.567Z,2.22
2023-01-12T10:41:45.827Z,1.90
2023-01-12T10:44:15.765Z,1.60
2023-01-12T10:46:49.743Z,1.80
2023-01-12T10:49:24.695Z,2.53
2023-01-12T10:52:10.812Z,3.03
2023-01-12T10:54:41.423Z,2.35
2023-01-12T10:57:25.775Z,1.92
2023-01-12T11:00:01.843Z,2.00
2023-01-12T11:02:42.949Z,1.70
2023-01-12T11:05:44.756Z,2.13
2023-01-12T11:08:33.786Z,1.73
2023-01-12T11:11:21.749Z,1.70
2023-01-12T11:13:57.825Z,1.85
2023-01-12T11:17:04.767Z,2.25
2023-01-12T11:19:43.732Z,1.73
2023-01-12T11:22:18.487Z,1.65
2023-01-12T11:25:26.812Z,1.48
2023-01-12T11:28:01.785Z,1.70
2023-01-12T11:30:43.805Z,2.20
2023-01-12T11:33:24.703Z,1.80
2023-01-12T11:36:07.827Z,1.50
2023-01-12T11:38:51.754Z,1.15
2023-01-12T11:42:11.800Z,1.45
2023-01-12T11:45:02.334Z,1.70
2023-01-12T11:47:42.744Z,1.52
2023-01-12T11:50:26.475Z,1.65
2023-01-12T11:53:01.741Z,1.80
2023-01-12T11:55:48.729Z,1.83
2023-01-12T11:58:31.903Z,2.45
2023-01-12T12:01:02.240Z,1.40
2023-01-12T12:03:50.808Z,1.50
2023-01-12T12:06:35.828Z,1.67
2023-01-12T12:09:38.726Z,1.27
2023-01-12T12:12:16.905Z,1.70
2023-01-12T12:15:03.779Z,2.08
2023-01-12T12:18:12.816Z,1.70
2023-01-12T12:21:10.816Z,1.70
2023-01-12T12:23:56.140Z,1.83
2023-01-12T12:26:41.747Z,1.38
2023-01-12T12:29:40.940Z,1.48
2023-01-12T12:32:23.733Z,1.37
2023-01-12T12:35:20.735Z,1.30
2023-01-12T12:38:08.770Z,1.00
2023-01-12T12:41:20.830Z,1.55
2023-01-12T12:44:22.977Z,1.60
2023-01-12T12:47:05.718Z,1.77
2023-01-12T12:49:34.769Z,1.20
2023-01-12T12:52:08.773Z,1.10
2023-01-12T12:54:35.626Z,1.42
2023-01-12T12:57:10.757Z,1.05
2023-01-12T12:59:52.113Z,1.13
2023-01-12T13:03:00.870Z,1.30
2023-01-12T13:05:42.885Z,0.90
2023-01-12T13:08:29.807Z,1.80
2023-01-12T13:10:58.877Z,1.02
2023-01-12T13:13:45.738Z,0.90
2023-01-12T13:16:15.539Z,0.90
2023-01-12T13:18:59.863Z,0.95
2023-01-12T13:21:26.448Z,0.73
2023-01-12T13:24:29.854Z,0.70
2023-01-12T13:26:58.778Z,0.75
2023-01-12T13:29:34.862Z,0.73
2023-01-12T13:32:33.692Z,0.73
2023-01-12T13:35:41.745Z,0.70
2023-01-12T13:39:09.851Z,0.80
2023-01-12T13:42:09.063Z,0.68
2023-01-12T13:44:39.613Z,0.80
2023-01-12T13:47:34.783Z,0.63
2023-01-12T13:50:03.090Z,0.75
2023-01-12T13:52:39.925Z,0.93
2023-01-12T13:55:24.846Z,0.60
2023-01-12T13:58:22.736Z,0.60
2023-01-12T14:01:07.777Z,0.70
2023-01-12T14:04:03.869Z,0.70
2023-01-12T14:07:13.750Z,0.60
2023-01-12T14:10:14.374Z,0.55
2023-01-12T14:13:17.843Z,0.70
2023-01-12T14:16:02.992Z,0.50
2023-01-12T14:18:55.746Z,0.65
2023-01-12T14:21:27.029Z,1.00
2023-01-12T14:24:14.830Z,0.60
2023-01-12T14:26:41.630Z,0.65
2023-01-12T14:29:12.986Z,0.68
2023-01-12T14:31:50.868Z,0.70
2023-01-12T14:34:44.834Z,0.82
2023-01-12T14:37:33.747Z,0.60
2023-01-12T14:40:07.837Z,0.60
2023-01-12T14:42:59.740Z,0.70
2023-01-12T14:45:46.185Z,0.70
2023-01-12T14:48:49.825Z,0.68
2023-01-12T14:51:32.486Z,0.65
2023-01-12T14:54:28.777Z,0.90
2023-01-12T14:57:08.802Z,1.10
2023-01-12T14:59:42.452Z,0.60
2023-01-12T15:02:28.726Z,0.80
2023-01-12T15:04:59.072Z,0.70
2023-01-12T15:07:37.791Z,0.70
2023-01-12T15:10:10.183Z,1.23
2023-01-12T15:12:54.507Z,0.88
2023-01-12T15:15:24.248Z,4.38
2023-01-12T15:18:18.733Z,1.17
2023-01-12T15:21:11.832Z,6.05
2023-01-12T15:23:57.242Z,1.40
2023-01-12T15:26:30.797Z,0.52
2023-01-12T15:29:03.742Z,0.70
2023-01-12T15:31:36.206Z,0.77
2023-01-12T15:34:10.745Z,0.60
2023-01-12T15:36:37.362Z,0.40
2023-01-12T15:39:20.743Z,0.75
2023-01-12T15:42:12.849Z,0.60
2023-01-12T15:44:47.839Z,0.63
2023-01-12T15:47:22.814Z,0.65
2023-01-12T15:49:51.248Z,0.80
2023-01-12T15:52:30.797Z,0.60
2023-01-12T15:54:57.375Z,0.52
2023-01-12T15:57:30.819Z,0.50
2023-01-12T16:00:04.010Z,0.88
2023-01-12T16:02:38.162Z,0.50
2023-01-12T16:05:12.808Z,0.68
2023-01-12T16:07:39.434Z,1.70
2023-01-12T16:10:12.767Z,1.00
2023-01-12T16:12:39.511Z,1.00
2023-01-12T16:15:15.744Z,0.90
2023-01-12T16:17:42.398Z,0.70
2023-01-12T16:20:16.917Z,0.85
2023-01-12T16:22:44.221Z,2.30
2023-01-12T16:25:11.328Z,1.50
2023-01-12T16:27:45.731Z,1.70
2023-01-12T16:30:21.800Z,0.65
2023-01-12T16:32:48.428Z,0.82
2023-01-12T16:35:15.834Z,0.68
2023-01-12T16:37:49.746Z,1.00
2023-01-12T16:40:29.833Z,0.70
2023-01-12T16:43:03.807Z,0.70
2023-01-12T16:45:30.480Z,0.43
2023-01-12T16:47:57.700Z,0.80
2023-01-12T16:50:30.815Z,0.68
2023-01-12T16:52:57.418Z,0.82
2023-01-12T16:55:24.007Z,0.52
2023-01-12T16:57:56.831Z,0.65
2023-01-12T17:00:23.685Z,0.70
2023-01-12T17:02:50.916Z,0.75
2023-01-12T17:05:23.735Z,0.50
2023-01-12T17:07:50.521Z,0.55
2023-01-12T17:10:23.758Z,0.73
2023-01-12T17:12:59.063Z,0.70
2023-01-12T17:15:28.001Z,0.80
2023-01-12T17:18:02.871Z,0.65
2023-01-12T17:20:29.552Z,0.57
2023-01-12T17:22:56.299Z,0.50
2023-01-12T17:25:29.813Z,0.60
2023-01-12T17:27:56.406Z,0.85
2023-01-12T17:30:23.226Z,0.70
2023-01-12T17:32:56.799Z,0.77
2023-01-12T17:35:23.425Z,0.80
2023-01-12T17:38:09.754Z,0.90
2023-01-12T17:40:39.496Z,1.35
2023-01-12T17:43:14.798Z,0.70
2023-01-12T17:45:42.736Z,0.57
2023-01-12T17:48:18.801Z,0.70
2023-01-12T17:50:47.126Z,0.70
2023-01-12T17:53:14.580Z,0.60
2023-01-12T17:55:49.807Z,0.80
2023-01-12T17:58:22.855Z,0.60
2023-01-12T18:00:55.817Z,0.65
2023-01-12T18:03:22.621Z,0.80
2023-01-12T18:05:57.733Z,0.90
2023-01-12T18:08:35.790Z,0.60
2023-01-12T18:11:07.591Z,0.70
2023-01-12T18:13:45.713Z,0.90
2023-01-12T18:16:20.838Z,0.70
2023-01-12T18:18:47.645Z,0.82
2023-01-12T18:21:23.856Z,0.77
2023-01-12T18:23:58.734Z,0.90
2023-01-12T18:26:28.295Z,1.30
2023-01-12T18:29:03.736Z,0.88
2023-01-12T18:31:39.499Z,0.80
2023-01-12T18:34:16.800Z,0.88
2023-01-12T18:36:43.647Z,1.08
2023-01-12T18:39:31.750Z,0.90
2023-01-12T18:42:23.780Z,1.10
2023-01-12T18:44:50.382Z,0.57
2023-01-12T18:47:41.796Z,0.60
2023-01-12T18:50:34.725Z,0.60
2023-01-12T18:53:26.757Z,0.55
2023-01-12T18:55:55.529Z,0.47
2023-01-12T18:58:36.703Z,0.52
2023-01-12T19:01:14.226Z,1.25
2023-01-12T19:03:47.715Z,0.80
2023-01-12T19:06:20.197Z,0.85
2023-01-12T19:09:11.967Z,0.85
2023-01-12T19:11:46.972Z,0.80
2023-01-12T19:14:38.803Z,0.65
2023-01-12T19:17:37.904Z,0.90
2023-01-12T19:20:18.772Z,0.70
2023-01-12T19:23:03.917Z,0.68
2023-01-12T19:25:55.790Z,0.80
2023-01-12T19:28:38.262Z,0.90
2023-01-12T19:31:15.837Z,0.60
2023-01-12T19:33:45.481Z,0.77
2023-01-12T19:36:22.751Z,0.93
2023-01-12T19:39:13.703Z,0.70
2023-01-12T19:42:05.760Z,0.70
2023-01-12T19:44:38.722Z,0.70
2023-01-12T19:47:11.843Z,0.65
2023-01-12T19:49:38.461Z,0.70
2023-01-12T19:52:05.221Z,1.63
2023-01-12T19:54:38.825Z,1.20
2023-01-12T19:57:06.331Z,1.10
2023-01-12T19:59:32.966Z,2.15
2023-01-12T20:02:07.812Z,0.70
2023-01-12T20:04:34.634Z,0.60
2023-01-12T20:07:07.802Z,0.70
2023-01-12T20:09:34.504Z,0.73
2023-01-12T20:12:01.213Z,0.73
2023-01-12T20:14:35.184Z,0.50
2023-01-12T20:17:01.794Z,0.68
2023-01-12T20:19:28.443Z,0.80
2023-01-12T20:22:01.845Z,0.90
2023-01-12T20:24:29.223Z,0.85
2023-01-12T20:26:56.265Z,0.70
2023-01-12T20:29:29.849Z,0.80
2023-01-12T20:31:56.515Z,0.63
2023-01-12T20:34:23.160Z,0.50
2023-01-12T20:36:56.789Z,0.65
2023-01-12T20:39:30.859Z,0.75
2023-01-12T20:42:04.798Z,0.60
2023-01-12T20:44:32.349Z,0.57
2023-01-12T20:46:59.900Z,0.88
2023-01-12T20:49:32.816Z,0.80
2023-01-12T20:51:59.517Z,0.80
2023-01-12T20:54:26.171Z,0.70
2023-01-12T20:56:59.721Z,0.55
2023-01-12T20:59:26.475Z,0.60
2023-01-12T21:01:53.167Z,0.93
2023-01-12T21:04:26.756Z,0.68
2023-01-12T21:06:53.346Z,0.75
2023-01-12T21:09:26.822Z,0.50
2023-01-12T21:11:53.585Z,0.70
2023-01-12T21:14:20.206Z,0.82
2023-01-12T21:16:53.811Z,0.77
2023-01-12T21:19:20.693Z,0.85
2023-01-12T21:21:47.336Z,0.70
2023-01-12T21:24:20.852Z,0.70
2023-01-12T21:26:47.475Z,0.52
2023-01-12T21:29:14.100Z,0.68
2023-01-12T21:31:46.814Z,0.60
2023-01-12T21:34:19.716Z,0.68
2023-01-12T21:36:46.502Z,0.50
2023-01-12T21:39:26.736Z,1.00
2023-01-12T21:44:45.451Z,0.60
2023-01-12T21:47:12.086Z,1.02
2023-01-12T21:49:44.958Z,0.80
2023-01-12T21:52:11.785Z,0.60
2023-01-12T21:54:44.734Z,0.73
2023-01-12T21:57:11.341Z,0.75
2023-01-12T21:59:44.846Z,0.75
2023-01-12T22:02:11.848Z,0.80
2023-01-12T22:04:38.548Z,0.60
2023-01-12T22:07:11.774Z,0.65
2023-01-12T22:09:39.369Z,0.88
2023-01-12T22:12:12.806Z,0.75
2023-01-12T22:14:39.498Z,0.63
2023-01-12T22:17:06.079Z,0.70
2023-01-12T22:19:39.716Z,0.90
2023-01-12T22:22:06.375Z,0.70
2023-01-12T22:24:39.823Z,0.70
2023-01-12T22:27:06.405Z,0.80
2023-01-12T22:29:33.016Z,0.73
2023-01-12T22:32:05.771Z,0.73
2023-01-12T22:34:32.416Z,0.77
2023-01-12T22:37:05.730Z,0.75
2023-01-12T22:39:52.710Z,0.77
2023-01-12T22:42:26.735Z,0.90
2023-01-12T22:44:56.414Z,0.65
2023-01-12T22:47:30.497Z,0.70
2023-01-12T22:49:57.723Z,0.70
2023-01-12T22:52:30.719Z,0.52
2023-01-12T22:54:57.311Z,0.70
2023-01-12T22:57:30.721Z,0.70
2023-01-12T22:59:57.303Z,0.80
2023-01-12T23:02:48.948Z,0.85
2023-01-12T23:05:15.876Z,0.90
2023-01-12T23:07:48.869Z,0.50
2023-01-12T23:10:15.999Z,0.65
2023-01-12T23:13:08.803Z,0.88
2023-01-12T23:15:44.057Z,0.98
2023-01-12T23:18:17.933Z,0.70
2023-01-12T23:20:51.866Z,0.90
2023-01-12T23:23:24.829Z,0.73
2023-01-12T23:25:51.532Z,0.57
2023-01-12T23:28:24.817Z,0.70
2023-01-12T23:30:51.525Z,0.90
2023-01-12T23:33:24.859Z,0.68
2023-01-12T23:35:51.600Z,0.70
2023-01-12T23:38:38.887Z,0.75
2023-01-12T23:41:16.569Z,0.80
2023-01-12T23:43:49.816Z,0.80
2023-01-12T23:46:17.425Z,0.60
2023-01-12T23:48:50.883Z,0.73
2023-01-12T23:51:17.655Z,0.75
2023-01-12T23:53:51.818Z,0.70
2023-01-12T23:56:19.664Z,0.80
2023-01-12T23:58:53.859Z,0.70
